Time;durP1;ratioP1;P1;durP2;ratioP2;P2;SDS_P1;SDS_P2;PMS_P1;PMS_P2;Temp;Humidity;BMP_temperature;BMP_pressure;BME280_temperature;BME280_humidity;BME280_pressure;Samples;Min_cycle;Max_cycle;Signal;HPM_P1;HPM_P2
2023/05/18 00:02:00;;;;;;;10.27;2.42;;;;;;;-143.48;66.22;118439.88;5054092;28;20021;-33
2023/05/18 00:04:26;;;;;;;8.38;2.10;;;;;;;-143.48;66.74;118439.88;5053723;28;20064;-33
2023/05/18 00:07:02;;;;;;;8.38;2.45;;;;;;;-143.48;66.93;118439.88;5053971;28;20025;-33
2023/05/18 00:09:29;;;;;;;7.85;2.45;;;;;;;-143.48;67.50;118439.88;5054484;28;20028;-33
2023/05/18 00:11:55;;;;;;;11.40;2.65;;;;;;;-143.48;67.88;118439.88;5053132;28;20071;-32
2023/05/18 00:14:21;;;;;;;7.75;2.20;;;;;;;-143.48;67.52;118439.88;5053580;28;20055;-33
2023/05/18 00:16:46;;;;;;;9.32;2.50;;;;;;;-143.48;67.90;118439.88;5053535;28;20096;-33
2023/05/18 00:19:13;;;;;;;5.65;2.10;;;;;;;-143.48;67.74;118439.88;5053542;28;20379;-33
2023/05/18 00:21:40;;;;;;;10.43;2.40;;;;;;;-143.48;66.94;118439.88;5053570;28;20052;-32
2023/05/18 00:24:06;;;;;;;5.63;2.10;;;;;;;-143.48;68.12;118439.88;5053363;28;20047;-33
2023/05/18 00:26:32;;;;;;;6.32;2.25;;;;;;;-143.48;67.31;118439.88;5053220;28;20021;-32
2023/05/18 00:28:57;;;;;;;8.25;2.30;;;;;;;-143.48;67.73;118439.88;5053241;28;20031;-33
2023/05/18 00:31:22;;;;;;;9.02;2.50;;;;;;;-143.48;67.92;118439.88;5053121;28;20549;-33
2023/05/18 00:33:47;;;;;;;8.95;2.47;;;;;;;-143.48;67.88;118439.88;5052957;28;20423;-32
2023/05/18 00:36:13;;;;;;;7.68;2.33;;;;;;;-143.48;67.92;118439.88;5053352;28;20025;-32
2023/05/18 00:38:38;;;;;;;9.90;2.42;;;;;;;-143.48;68.43;118439.88;5053090;28;20036;-32
2023/05/18 00:41:03;;;;;;;13.15;2.50;;;;;;;-143.48;68.10;118439.88;5053081;28;20487;-32
2023/05/18 00:43:29;;;;;;;6.45;2.13;;;;;;;-143.48;67.50;118439.88;5053637;28;20043;-32
2023/05/18 00:45:54;;;;;;;6.90;2.08;;;;;;;-143.48;67.45;118439.88;5053192;28;20029;-33
2023/05/18 00:48:19;;;;;;;9.63;2.35;;;;;;;-143.48;67.12;118439.88;5052896;28;20021;-32
2023/05/18 00:50:45;;;;;;;8.65;2.20;;;;;;;-143.48;67.21;118439.88;5053375;28;20036;-32
2023/05/18 00:53:10;;;;;;;8.30;2.30;;;;;;;-143.48;68.58;118439.88;5052880;28;20025;-32
2023/05/18 00:55:36;;;;;;;11.02;2.20;;;;;;;-143.48;68.47;118439.88;5053161;28;20056;-32
2023/05/18 00:58:01;;;;;;;8.98;2.20;;;;;;;-143.48;68.68;118439.88;5053137;28;20025;-32
2023/05/18 01:00:27;;;;;;;13.07;2.22;;;;;;;-143.48;68.91;118439.88;5053655;28;20468;-32
2023/05/18 01:02:53;;;;;;;8.25;2.25;;;;;;;-143.48;68.53;118439.88;5056981;28;20024;-33
2023/05/18 01:05:20;;;;;;;14.45;2.70;;;;;;;-143.48;68.66;118439.88;5057034;28;20025;-32
2023/05/18 01:07:47;;;;;;;8.85;2.20;;;;;;;-143.48;68.32;118439.88;5056858;28;20382;-32
2023/05/18 01:10:15;;;;;;;8.55;2.33;;;;;;;-143.48;69.12;118439.88;5056873;28;20430;-32
2023/05/18 01:13:04;;;;;;;7.28;2.30;;;;;;;-143.48;68.93;118439.88;5056730;28;20082;-32
2023/05/18 01:15:40;;;;;;;11.25;2.45;;;;;;;-143.48;69.09;118439.88;5047139;28;20491;-32
2023/05/18 01:18:05;;;;;;;13.02;2.28;;;;;;;-143.48;69.23;118439.88;5056652;28;20021;-32
2023/05/18 01:20:39;;;;;;;11.20;2.70;;;;;;;-143.48;69.28;118439.88;5056638;28;20478;-32
2023/05/18 01:23:19;;;;;;;8.90;2.50;;;;;;;-143.48;69.25;118439.88;5056971;28;20035;-33
2023/05/18 01:25:48;;;;;;;9.18;2.33;;;;;;;-143.48;68.14;118439.88;5056638;28;20375;-32
2023/05/18 01:28:18;;;;;;;10.43;2.60;;;;;;;-143.48;68.28;118439.88;5056795;28;20029;-32
2023/05/18 01:30:44;;;;;;;9.18;2.30;;;;;;;-143.48;69.42;118439.88;5056467;28;20502;-33
2023/05/18 01:33:11;;;;;;;8.65;2.70;;;;;;;-143.48;69.15;118439.88;5056314;28;20092;-32
2023/05/18 01:35:37;;;;;;;8.80;2.20;;;;;;;-143.48;69.44;118439.88;5056677;28;20024;-32
2023/05/18 01:38:03;;;;;;;9.18;2.35;;;;;;;-143.48;68.88;118439.88;5056068;28;20032;-32
2023/05/18 01:40:36;;;;;;;9.80;2.35;;;;;;;-143.48;70.20;118439.88;5056244;28;20029;-32
2023/05/18 01:43:07;;;;;;;;;;;;;;;-143.48;69.60;118439.88;5056328;28;20105;-32
2023/05/18 01:45:34;;;;;;;8.18;2.35;;;;;;;-143.48;70.00;118439.88;5056467;28;19944;-32
2023/05/18 01:48:00;;;;;;;6.55;2.08;;;;;;;-143.48;69.67;118439.88;5056199;28;20051;-32
2023/05/18 01:50:36;;;;;;;7.88;2.20;;;;;;;-143.48;69.56;118439.88;5055708;28;20035;-32
2023/05/18 01:53:13;;;;;;;11.30;2.97;;;;;;;-143.48;70.10;118439.88;5055668;28;20025;-32
2023/05/18 01:55:40;;;;;;;13.85;2.92;;;;;;;-143.48;70.66;118439.88;5056014;28;20025;-32
2023/05/18 01:58:08;;;;;;;10.55;2.10;;;;;;;-143.48;70.54;118439.88;5037833;28;20075;-33
2023/05/18 02:00:35;;;;;;;9.30;2.35;;;;;;;-143.48;71.38;118439.88;5055876;28;20053;-32
2023/05/18 02:03:01;;;;;;;12.07;2.53;;;;;;;-143.48;71.60;118439.88;5055457;28;20021;-32
2023/05/18 02:05:26;;;;;;;6.05;2.10;;;;;;;-143.48;71.18;118439.88;5055879;28;20090;-32
2023/05/18 02:07:52;;;;;;;9.93;2.45;;;;;;;-143.48;71.63;118439.88;5055478;28;20025;-32
2023/05/18 02:10:17;;;;;;;10.20;2.40;;;;;;;-143.48;71.23;118439.88;5055983;28;20040;-32
2023/05/18 02:12:42;;;;;;;7.00;2.25;;;;;;;-143.48;72.18;118439.88;5054948;28;20025;-32
2023/05/18 02:15:08;;;;;;;12.77;2.88;;;;;;;-143.48;71.24;118439.88;5055156;28;20040;-33
2023/05/18 02:17:38;;;;;;;7.03;2.20;;;;;;;-143.48;71.55;118439.88;5038431;28;20028;-32
2023/05/18 02:20:08;;;;;;;9.52;2.53;;;;;;;-143.48;71.54;118439.88;5055823;28;20020;-32
2023/05/18 02:22:35;;;;;;;9.07;2.63;;;;;;;-143.48;71.91;118439.88;5055958;28;20017;-32
2023/05/18 02:25:01;;;;;;;9.45;2.35;;;;;;;-143.48;72.43;118439.88;5055657;28;20033;-32
2023/05/18 02:27:27;;;;;;;10.38;2.60;;;;;;;-143.48;72.79;118439.88;5055178;28;20126;-32
2023/05/18 02:29:52;;;;;;;9.88;2.53;;;;;;;-143.48;72.36;118439.88;5055317;28;20096;-32
2023/05/18 02:32:17;;;;;;;6.95;2.40;;;;;;;-143.48;72.77;118439.88;5054871;28;20029;-32
2023/05/18 02:34:45;;;;;;;9.35;2.40;;;;;;;-143.48;73.69;118439.88;5036987;28;20024;-32
2023/05/18 02:37:12;;;;;;;6.07;2.13;;;;;;;-143.48;73.55;118439.88;5055197;28;20031;-33
2023/05/18 02:39:37;;;;;;;9.88;2.40;;;;;;;-143.48;73.06;118439.88;5055210;28;20376;-32
2023/05/18 02:42:03;;;;;;;10.57;2.65;;;;;;;-143.48;73.72;118439.88;5055167;28;20025;-32
2023/05/18 02:44:28;;;;;;;7.60;2.30;;;;;;;-143.48;73.18;118439.88;5055301;28;20514;-33
2023/05/18 02:46:54;;;;;;;11.40;2.65;;;;;;;-143.48;73.12;118439.88;5054680;28;20111;-32
2023/05/18 02:49:19;;;;;;;10.30;2.83;;;;;;;-143.48;75.04;118439.88;5054737;28;20029;-33
2023/05/18 02:51:44;;;;;;;7.05;2.58;;;;;;;-143.48;73.54;118439.88;5054976;28;20025;-32
2023/05/18 02:54:10;;;;;;;8.63;2.42;;;;;;;-143.48;73.42;118439.88;5054737;28;20072;-33
2023/05/18 02:56:35;;;;;;;17.77;2.60;;;;;;;-143.48;73.15;118439.88;5054862;28;20032;-32
2023/05/18 02:59:00;;;;;;;11.00;3.15;;;;;;;-143.48;74.05;118439.88;5054579;28;20028;-32
2023/05/18 03:01:26;;;;;;;12.90;2.75;;;;;;;-143.48;73.90;118439.88;5054781;28;20028;-33
2023/05/18 03:03:52;;;;;;;8.45;2.63;;;;;;;-143.48;74.38;118439.88;5054706;28;20222;-32
2023/05/18 03:06:22;;;;;;;14.15;2.78;;;;;;;-143.48;74.71;118439.88;5055034;28;20028;-32
2023/05/18 03:08:48;;;;;;;7.20;2.35;;;;;;;-143.48;74.06;118439.88;5054350;28;20049;-32
2023/05/18 03:11:13;;;;;;;8.10;2.40;;;;;;;-143.48;75.68;118439.88;5054796;28;20025;-32
2023/05/18 03:13:39;;;;;;;8.15;2.88;;;;;;;-143.48;75.23;118439.88;5054580;28;20051;-32
2023/05/18 03:16:04;;;;;;;8.10;2.22;;;;;;;-143.48;75.75;118439.88;5054035;28;20190;-31
2023/05/18 03:18:30;;;;;;;9.45;2.60;;;;;;;-143.48;76.48;118439.88;5054360;28;20020;-32
2023/05/18 03:21:00;;;;;;;9.73;2.33;;;;;;;-143.48;76.38;118439.88;5054445;28;20025;-32
2023/05/18 03:23:26;;;;;;;10.32;2.67;;;;;;;-143.48;76.72;118439.88;5037209;28;20029;-32
2023/05/18 03:25:53;;;;;;;9.35;2.30;;;;;;;-143.48;76.46;118439.88;5054819;28;20028;-32
2023/05/18 03:28:19;;;;;;;11.35;2.70;;;;;;;-143.48;76.66;118439.88;5053961;28;20029;-32
2023/05/18 03:30:44;;;;;;;7.63;2.58;;;;;;;-143.48;76.09;118439.88;5054129;28;20035;-32
2023/05/18 03:33:10;;;;;;;11.55;2.70;;;;;;;-143.48;76.51;118439.88;5053818;28;20040;-33
2023/05/18 03:35:38;;;;;;;10.45;2.45;;;;;;;-143.48;76.73;118439.88;5054203;28;20104;-31
2023/05/18 03:38:03;;;;;;;5.28;2.38;;;;;;;-143.48;77.27;118439.88;5053733;28;20108;-32
2023/05/18 03:40:29;;;;;;;12.38;3.00;;;;;;;-143.48;77.38;118439.88;5053971;28;20115;-32
2023/05/18 03:42:54;;;;;;;9.30;2.30;;;;;;;-143.48;77.54;118439.88;5053681;28;20460;-32
2023/05/18 03:45:20;;;;;;;9.50;2.55;;;;;;;-143.48;77.70;118439.88;5053653;28;20033;-32
2023/05/18 03:47:46;;;;;;;13.20;2.60;;;;;;;-143.48;77.98;118439.88;5054214;28;20020;-32
2023/05/18 03:50:11;;;;;;;7.97;2.47;;;;;;;-143.48;77.96;118439.88;5053921;28;20036;-31
2023/05/18 03:52:37;;;;;;;6.18;2.47;;;;;;;-143.48;78.36;118439.88;5053733;28;20075;-32
2023/05/18 03:55:04;;;;;;;6.97;2.58;;;;;;;-143.48;78.86;118439.88;5053429;28;20056;-32
2023/05/18 03:57:30;;;;;;;7.45;2.53;;;;;;;-143.48;78.40;118439.88;5053743;28;20107;-33
2023/05/18 03:59:56;;;;;;;9.05;2.47;;;;;;;-143.48;79.64;118439.88;5053505;28;20021;-33
2023/05/18 04:02:22;;;;;;;9.98;2.53;;;;;;;-143.48;79.03;118439.88;5053462;28;20032;-33
2023/05/18 04:04:47;;;;;;;8.23;2.97;;;;;;;-143.48;79.16;118439.88;5053400;28;20391;-32
2023/05/18 04:07:17;;;;;;;8.07;2.60;;;;;;;-143.48;78.77;118439.88;5053456;28;20032;-33
2023/05/18 04:09:43;;;;;;;9.10;3.03;;;;;;;-143.48;79.27;118439.88;5053332;28;20025;-32
2023/05/18 04:12:09;;;;;;;11.35;2.58;;;;;;;-143.48;78.48;118439.88;5053512;28;20036;-33
2023/05/18 04:14:35;;;;;;;12.40;2.70;;;;;;;-143.48;78.13;118439.88;5053370;28;20052;-32
2023/05/18 04:17:04;;;;;;;7.68;2.58;;;;;;;-143.48;77.70;118439.88;5053323;28;20037;-33
2023/05/18 04:19:33;;;;;;;18.90;3.25;;;;;;;-143.48;78.30;118439.88;5053525;28;20033;-33
2023/05/18 04:21:59;;;;;;;8.40;3.08;;;;;;;-143.48;79.04;118439.88;5053340;28;20029;-33
2023/05/18 04:24:28;;;;;;;6.18;2.70;;;;;;;-143.48;78.92;118439.88;5053128;28;20481;-33
2023/05/18 04:26:53;;;;;;;7.40;2.60;;;;;;;-143.48;77.48;118439.88;5053780;28;20533;-33
2023/05/18 04:29:18;;;;;;;9.07;2.33;;;;;;;-143.48;76.83;118439.88;5053036;28;20029;-33
2023/05/18 04:31:47;;;;;;;10.23;2.63;;;;;;;-143.48;77.51;118439.88;5053259;28;20028;-33
2023/05/18 04:34:12;;;;;;;8.40;2.47;;;;;;;-143.48;77.27;118439.88;5053365;28;20112;-33
2023/05/18 04:36:41;;;;;;;7.05;2.45;;;;;;;-143.48;77.33;118439.88;5056000;28;20482;-33
2023/05/18 04:39:07;;;;;;;8.48;2.58;;;;;;;-143.48;76.32;118439.88;5039658;28;20029;-33
2023/05/18 04:41:33;;;;;;;13.30;3.05;;;;;;;-143.48;76.30;118439.88;5057257;28;20021;-33
2023/05/18 04:43:59;;;;;;;13.70;2.80;;;;;;;-143.48;75.92;118439.88;5057271;28;20072;-33
2023/05/18 04:46:25;;;;;;;9.75;2.92;;;;;;;-143.48;76.76;118439.88;5057153;28;20459;-33
2023/05/18 04:48:51;;;;;;;10.77;3.10;;;;;;;-143.48;76.18;118439.88;5056914;28;20386;-33
2023/05/18 04:51:20;;;;;;;9.93;2.80;;;;;;;-143.48;76.08;118439.88;5057062;28;20119;-33
2023/05/18 04:53:48;;;;;;;9.77;3.00;;;;;;;-143.48;76.70;118439.88;5057344;28;20021;-33
2023/05/18 04:56:15;;;;;;;7.22;2.67;;;;;;;-143.48;75.61;118439.88;5056977;28;20076;-33
2023/05/18 04:58:40;;;;;;;8.40;2.67;;;;;;;-143.48;75.99;118439.88;5056657;28;20108;-33
2023/05/18 05:01:06;;;;;;;11.27;2.53;;;;;;;-143.48;75.35;118439.88;5056660;28;20114;-32
2023/05/18 05:03:32;;;;;;;13.02;2.97;;;;;;;-143.48;73.83;118439.88;5057442;28;20021;-33
2023/05/18 05:05:57;;;;;;;7.78;2.50;;;;;;;-143.48;75.11;118439.88;5056917;28;20065;-33
2023/05/18 05:08:22;;;;;;;11.02;2.72;;;;;;;-143.48;75.00;118439.88;5056522;28;20391;-33
2023/05/18 05:10:47;;;;;;;13.05;2.78;;;;;;;-143.48;74.92;118439.88;5056930;28;20108;-33
2023/05/18 05:13:13;;;;;;;9.80;2.75;;;;;;;-143.48;74.21;118439.88;5056534;28;20028;-32
2023/05/18 05:15:38;;;;;;;9.75;3.10;;;;;;;-143.48;74.58;118439.88;5057562;28;20080;-33
2023/05/18 05:18:03;;;;;;;7.50;2.70;;;;;;;-143.48;72.84;118439.88;5056474;28;20021;-33
2023/05/18 05:20:29;;;;;;;8.02;2.92;;;;;;;-143.48;72.37;118439.88;5056695;28;20028;-33
2023/05/18 05:22:54;;;;;;;10.25;3.15;;;;;;;-143.48;71.45;118439.88;5056309;28;20013;-32
2023/05/18 05:25:20;;;;;;;9.90;3.20;;;;;;;-143.48;72.96;118439.88;5056817;28;20066;-33
2023/05/18 05:27:45;;;;;;;5.85;2.35;;;;;;;-143.48;70.87;118439.88;5056515;28;20020;-32
2023/05/18 05:30:11;;;;;;;9.45;3.28;;;;;;;-143.48;70.48;118439.88;5056461;28;20020;-33
2023/05/18 05:32:36;;;;;;;8.15;3.00;;;;;;;-143.48;70.47;118439.88;5056310;28;20024;-33
2023/05/18 05:35:02;;;;;;;8.35;2.75;;;;;;;-143.48;70.04;118439.88;5056187;28;20095;-33
2023/05/18 05:37:28;;;;;;;14.68;3.30;;;;;;;-143.48;70.31;118439.88;5056140;28;20037;-32
2023/05/18 05:39:53;;;;;;;8.43;3.08;;;;;;;-143.48;70.76;118439.88;5056606;28;20021;-33
2023/05/18 05:42:18;;;;;;;10.48;2.90;;;;;;;-143.48;69.80;118439.88;5055924;28;20023;-33
2023/05/18 05:44:44;;;;;;;10.13;2.67;;;;;;;-143.48;68.93;118439.88;5056525;28;20029;-33
2023/05/18 05:47:09;;;;;;;11.82;2.90;;;;;;;-143.48;68.61;118439.88;5054946;28;20025;-33
2023/05/18 05:49:35;;;;;;;11.05;3.10;;;;;;;-143.48;67.28;118439.88;5056123;28;20520;-33
2023/05/18 05:52:00;;;;;;;8.10;2.85;;;;;;;-143.48;63.43;118439.88;5055725;28;20496;-32
2023/05/18 05:54:25;;;;;;;9.77;2.80;;;;;;;-143.48;61.21;118439.88;5056044;28;20036;-33
2023/05/18 05:56:51;;;;;;;12.65;2.90;;;;;;;-143.48;61.78;118439.88;5055914;28;20025;-33
2023/05/18 05:59:16;;;;;;;7.80;2.75;;;;;;;-143.48;59.75;118439.88;5055681;28;20472;-33
2023/05/18 06:01:41;;;;;;;10.52;2.85;;;;;;;-143.48;59.31;118439.88;5055634;28;20028;-33
2023/05/18 06:04:09;;;;;;;10.13;3.05;;;;;;;-143.48;58.19;118439.88;5055503;28;20025;-33
2023/05/18 06:06:37;;;;;;;11.75;2.88;;;;;;;-143.48;56.46;118439.88;5055785;28;20119;-33
2023/05/18 06:09:03;;;;;;;10.68;2.88;;;;;;;-143.48;54.50;118439.88;5056138;28;20017;-34
2023/05/18 06:11:29;;;;;;;11.52;3.10;;;;;;;-143.48;51.52;118439.88;5037723;28;20392;-34
2023/05/18 06:13:54;;;;;;;9.73;3.00;;;;;;;-143.48;46.88;118439.88;5055492;28;20025;-32
2023/05/18 06:16:19;;;;;;;11.02;2.42;;;;;;;-143.48;46.38;118439.88;5055881;28;20028;-33
2023/05/18 06:18:45;;;;;;;8.00;2.50;;;;;;;-143.48;44.66;118439.88;5055195;28;20029;-32
2023/05/18 06:21:10;;;;;;;11.82;3.17;;;;;;;-143.48;44.80;118439.88;5055534;28;20033;-33
2023/05/18 06:23:35;;;;;;;11.20;2.58;;;;;;;-143.48;47.45;118439.88;5055246;28;20020;-33
2023/05/18 06:26:01;;;;;;;11.75;3.40;;;;;;;-143.48;47.87;118439.88;5055142;28;20055;-33
2023/05/18 06:28:26;;;;;;;8.70;2.65;;;;;;;-143.48;48.45;118439.88;5055725;28;20032;-33
2023/05/18 06:30:51;;;;;;;10.35;2.78;;;;;;;-143.48;47.05;118439.88;5055117;28;20464;-33
2023/05/18 06:33:19;;;;;;;9.55;2.55;;;;;;;-143.48;45.51;118439.88;5054965;28;20025;-33
2023/05/18 06:35:45;;;;;;;14.23;3.38;;;;;;;-143.48;44.55;118439.88;5055167;28;20025;-33
2023/05/18 06:38:10;;;;;;;7.03;2.55;;;;;;;-143.48;43.70;118439.88;5055034;28;20425;-40
2023/05/18 06:40:35;;;;;;;8.73;2.33;;;;;;;-143.48;43.19;118439.88;5054969;28;20036;-33
2023/05/18 06:43:01;;;;;;;11.43;2.65;;;;;;;-143.48;43.81;118439.88;5054894;28;20025;-33
2023/05/18 06:45:26;;;;;;;7.28;2.30;;;;;;;-143.48;43.31;118439.88;5054916;28;20031;-33
2023/05/18 06:47:51;;;;;;;12.45;2.50;;;;;;;-143.48;44.75;118439.88;5055009;28;20029;-33
2023/05/18 06:50:16;;;;;;;13.57;2.80;;;;;;;-143.48;43.46;118439.88;5054666;28;20486;-32
2023/05/18 06:52:43;;;;;;;13.15;2.60;;;;;;;-143.48;45.12;118439.88;5054921;28;20025;-33
2023/05/18 06:55:08;;;;;;;7.18;2.30;;;;;;;-143.48;44.47;118439.88;5054931;28;20052;-34
2023/05/18 06:57:33;;;;;;;9.60;2.80;;;;;;;-143.48;45.92;118439.88;5054854;28;20112;-33
2023/05/18 06:59:59;;;;;;;10.82;2.30;;;;;;;-143.48;44.70;118439.88;5054460;28;20459;-33
2023/05/18 07:02:25;;;;;;;12.73;2.63;;;;;;;-143.48;44.07;118439.88;5054792;28;20464;-33
2023/05/18 07:04:50;;;;;;;9.95;2.40;;;;;;;-143.48;42.45;118439.88;5054689;28;20104;-33
2023/05/18 07:07:16;;;;;;;13.98;2.60;;;;;;;-143.48;44.01;118439.88;5054713;28;20028;-33
2023/05/18 07:09:44;;;;;;;11.80;2.50;;;;;;;-143.48;46.40;118439.88;5054236;28;20521;-33
2023/05/18 07:12:12;;;;;;;9.50;2.33;;;;;;;-143.48;44.81;118439.88;5054531;28;20028;-33
2023/05/18 07:14:37;;;;;;;15.18;2.65;;;;;;;-143.48;47.13;118439.88;5054144;28;20052;-33
2023/05/18 07:17:05;;;;;;;11.35;2.70;;;;;;;-143.48;47.53;118439.88;5054492;28;20033;-32
2023/05/18 07:19:31;;;;;;;17.52;2.90;;;;;;;-143.48;47.86;118439.88;5054422;28;20024;-33
2023/05/18 07:21:58;;;;;;;11.40;2.38;;;;;;;-143.48;48.74;118439.88;5054259;28;20459;-33
2023/05/18 07:24:23;;;;;;;10.20;2.33;;;;;;;-143.48;48.96;118439.88;5054407;28;20040;-32
2023/05/18 07:26:49;;;;;;;14.30;3.00;;;;;;;-143.48;49.15;118439.88;5036697;28;20021;-33
2023/05/18 07:29:14;;;;;;;10.93;2.50;;;;;;;-143.48;49.65;118439.88;5053947;28;20115;-33
2023/05/18 07:31:40;;;;;;;13.63;2.50;;;;;;;-143.48;50.32;118439.88;5054097;28;20082;-32
2023/05/18 07:34:06;;;;;;;11.10;2.40;;;;;;;-143.48;50.22;118439.88;5054385;28;20379;-33
2023/05/18 07:36:31;;;;;;;10.27;2.78;;;;;;;-143.48;49.80;118439.88;5036392;28;20582;-33
2023/05/18 07:38:57;;;;;;;9.25;2.42;;;;;;;-143.48;49.40;118439.88;5054538;28;20107;-33
2023/05/18 07:41:23;;;;;;;10.15;2.25;;;;;;;-143.48;50.46;118439.88;5054320;28;20107;-33
2023/05/18 07:43:50;;;;;;;9.70;2.60;;;;;;;-143.48;48.58;118439.88;5053744;28;20517;-33
2023/05/18 07:46:16;;;;;;;8.27;2.35;;;;;;;-143.48;48.60;118439.88;5054001;28;20471;-32
2023/05/18 07:48:41;;;;;;;10.27;2.70;;;;;;;-143.48;49.24;118439.88;5053688;28;20096;-33
2023/05/18 07:51:07;;;;;;;9.43;2.05;;;;;;;-143.48;49.33;118439.88;5053893;28;20024;-33
2023/05/18 07:53:33;;;;;;;9.85;2.30;;;;;;;-143.48;50.10;118439.88;5053440;28;20124;-33
2023/05/18 07:55:59;;;;;;;16.45;2.30;;;;;;;-143.48;49.22;118439.88;5053871;28;20033;-33
2023/05/18 07:58:24;;;;;;;10.02;2.28;;;;;;;-143.48;48.22;118439.88;5053742;28;20033;-33
2023/05/18 08:00:49;;;;;;;10.73;2.30;;;;;;;-143.48;49.36;118439.88;5054022;28;20036;-33
2023/05/18 08:03:16;;;;;;;6.32;2.15;;;;;;;-143.48;47.80;118439.88;5053712;28;20029;-33
2023/05/18 08:05:41;;;;;;;14.05;2.78;;;;;;;-143.48;46.94;118439.88;5053302;28;20044;-33
2023/05/18 08:08:07;;;;;;;13.20;2.40;;;;;;;-143.48;46.95;118439.88;5053655;28;20036;-33
2023/05/18 08:10:32;;;;;;;13.00;2.58;;;;;;;-143.48;47.16;118439.88;5052966;28;20437;-33
2023/05/18 08:12:57;;;;;;;6.72;2.33;;;;;;;-143.48;46.08;118439.88;5053260;28;20463;-33
2023/05/18 08:15:23;;;;;;;10.57;2.83;;;;;;;-143.48;47.44;118439.88;5053229;28;20041;-33
2023/05/18 08:17:48;;;;;;;12.05;2.40;;;;;;;-143.48;46.52;118439.88;5053547;28;20036;-33
2023/05/18 08:20:13;;;;;;;11.20;2.28;;;;;;;-143.48;45.77;118439.88;5053409;28;20017;-33
2023/05/18 08:22:39;;;;;;;7.45;2.22;;;;;;;-143.48;46.94;118439.88;5053145;28;20043;-33
2023/05/18 08:25:04;;;;;;;8.60;2.42;;;;;;;-143.48;47.01;118439.88;5052600;28;20029;-33
2023/05/18 08:27:30;;;;;;;13.20;2.50;;;;;;;-143.48;46.34;118439.88;5053573;28;20044;-33
2023/05/18 08:29:55;;;;;;;10.50;2.28;;;;;;;-143.48;46.97;118439.88;5053842;28;20513;-33
2023/05/18 08:32:21;;;;;;;10.75;2.50;;;;;;;-143.48;46.06;118439.88;5053159;28;20103;-33
2023/05/18 08:34:46;;;;;;;11.73;2.65;;;;;;;-143.48;46.04;118439.88;5053123;28;20025;-33
2023/05/18 08:37:12;;;;;;;11.40;2.90;;;;;;;-143.48;45.05;118439.88;5053128;28;20102;-33
2023/05/18 08:39:37;;;;;;;8.00;2.50;;;;;;;-143.48;45.29;118439.88;5052963;28;20060;-33
2023/05/18 08:42:20;;;;;;;10.00;2.30;;;;;;;-143.48;46.60;118439.88;5052202;28;20047;-33
2023/05/18 08:45:11;;;;;;;7.63;2.42;;;;;;;-143.48;47.28;118439.88;5053359;28;20048;-33
2023/05/18 08:47:37;;;;;;;9.02;2.40;;;;;;;-143.48;45.17;118439.88;5053136;28;20029;-34
2023/05/18 08:50:04;;;;;;;8.13;2.30;;;;;;;-143.48;45.98;118439.88;5053207;28;20032;-33
2023/05/18 08:52:35;;;;;;;12.35;2.50;;;;;;;-143.48;46.53;118439.88;5053217;28;20033;-33
2023/05/18 08:55:05;;;;;;;11.82;2.60;;;;;;;-143.48;46.90;118439.88;5051696;28;20158;-33
2023/05/18 08:57:33;;;;;;;8.48;2.40;;;;;;;-143.48;46.22;118439.88;5053258;28;20021;-33
2023/05/18 09:00:00;;;;;;;8.95;2.30;;;;;;;-143.48;46.07;118439.88;5053376;28;20119;-33
2023/05/18 09:02:29;;;;;;;12.50;2.45;;;;;;;-143.48;46.42;118439.88;5053235;28;20021;-33
2023/05/18 09:04:55;;;;;;;8.27;2.40;;;;;;;-143.48;47.44;118439.88;5034932;28;20028;-33
2023/05/18 09:07:22;;;;;;;8.20;2.42;;;;;;;-143.48;45.89;118439.88;5052716;28;20025;-34
2023/05/18 09:09:47;;;;;;;9.50;2.70;;;;;;;-143.48;45.32;118439.88;5052809;28;20035;-32
2023/05/18 09:12:16;;;;;;;9.80;2.60;;;;;;;-143.48;45.25;118439.88;5053245;28;20029;-33
2023/05/18 09:14:42;;;;;;;8.40;2.45;;;;;;;-143.48;45.06;118439.88;5015117;28;20050;-33
2023/05/18 09:17:08;;;;;;;6.65;2.42;;;;;;;-143.48;44.90;118439.88;5032757;28;20388;-33
2023/05/18 09:19:34;;;;;;;9.32;2.22;;;;;;;-143.48;44.11;118439.88;5032734;28;20027;-34
2023/05/18 09:22:00;;;;;;;8.98;2.15;;;;;;;-143.48;43.22;118439.88;5033848;28;20033;-34
2023/05/18 09:24:25;;;;;;;12.73;2.63;;;;;;;-143.48;43.03;118439.88;5036539;28;20028;-34
2023/05/18 09:26:51;;;;;;;10.70;2.55;;;;;;;-143.48;44.10;118439.88;5036793;28;20060;-33
2023/05/18 09:29:20;;;;;;;13.52;3.05;;;;;;;-143.48;44.11;118439.88;5036463;28;20468;-33
2023/05/18 09:31:46;;;;;;;10.43;2.40;;;;;;;-143.48;43.22;118439.88;5035930;28;20071;-33
2023/05/18 09:34:12;;;;;;;14.50;2.63;;;;;;;-143.48;43.00;118439.88;5033905;28;20026;-33
2023/05/18 09:36:38;;;;;;;12.45;2.70;;;;;;;-143.48;43.36;118439.88;5033763;28;20037;-33
2023/05/18 09:39:09;;;;;;;13.95;2.72;;;;;;;-143.48;42.50;118439.88;5016038;28;20404;-33
2023/05/18 09:41:42;;;;;;;7.38;2.25;;;;;;;-143.48;41.94;118439.88;5034107;28;20036;-38
2023/05/18 09:44:08;;;;;;;8.75;2.50;;;;;;;-143.48;42.78;118439.88;5035082;28;20132;-33
2023/05/18 09:46:37;;;;;;;9.52;2.53;;;;;;;-143.48;42.67;118439.88;5036275;28;20124;-33
2023/05/18 09:49:04;;;;;;;13.95;3.03;;;;;;;-143.48;41.39;118439.88;5036245;28;20527;-32
2023/05/18 09:51:33;;;;;;;9.45;2.50;;;;;;;-143.48;40.59;118439.88;5036184;28;20384;-33
2023/05/18 09:53:58;;;;;;;9.77;2.45;;;;;;;-143.48;41.93;118439.88;5036070;28;20380;-29
2023/05/18 09:56:25;;;;;;;8.40;2.50;;;;;;;-143.48;41.44;118439.88;5035899;28;20033;-29
2023/05/18 09:58:51;;;;;;;8.60;2.67;;;;;;;-143.48;41.76;118439.88;5035826;28;20072;-29
2023/05/18 10:01:17;;;;;;;9.77;2.55;;;;;;;-143.48;41.95;118439.88;5036128;28;20021;-30
2023/05/18 10:03:44;;;;;;;12.23;2.65;;;;;;;-143.48;41.79;118439.88;5035598;28;20675;-29
2023/05/18 10:06:13;;;;;;;8.43;2.55;;;;;;;-143.48;41.83;118439.88;5034549;28;20468;-29
2023/05/18 10:08:39;;;;;;;9.00;2.67;;;;;;;-143.48;42.32;118439.88;5035879;28;20032;-29
2023/05/18 10:11:05;;;;;;;8.43;2.22;;;;;;;-143.48;40.95;118439.88;5034783;28;20026;-29
2023/05/18 10:13:31;;;;;;;10.05;2.45;;;;;;;-143.48;40.87;118439.88;5033190;28;20033;-29
2023/05/18 10:15:59;;;;;;;7.40;2.28;;;;;;;-143.48;42.04;118439.88;5050993;28;20049;-30
2023/05/18 10:18:29;;;;;;;8.80;2.50;;;;;;;-143.48;40.89;118439.88;5053079;28;20029;-29
2023/05/18 10:20:57;;;;;;;8.95;2.30;;;;;;;-143.48;40.56;118439.88;5053435;28;20017;-29
2023/05/18 10:23:24;;;;;;;12.63;2.50;;;;;;;-143.48;41.26;118439.88;5053758;28;20158;-29
2023/05/18 10:25:51;;;;;;;8.70;2.25;;;;;;;-143.48;40.94;118439.88;5053850;28;20154;-29
2023/05/18 10:28:19;;;;;;;10.10;2.55;;;;;;;-143.48;40.43;118439.88;5055444;28;20033;-29
2023/05/18 10:30:46;;;;;;;9.75;2.50;;;;;;;-143.48;41.39;118439.88;5055299;28;20028;-29
2023/05/18 10:33:12;;;;;;;13.20;2.55;;;;;;;-143.48;40.62;118439.88;5054272;28;20021;-29
2023/05/18 10:35:38;;;;;;;8.50;2.40;;;;;;;-143.48;39.88;118439.88;5055439;28;20029;-29
2023/05/18 10:38:06;;;;;;;10.73;2.50;;;;;;;-143.48;39.06;118439.88;5054410;28;20025;-29
2023/05/18 10:40:34;;;;;;;8.88;2.70;;;;;;;-143.48;39.20;118439.88;5055064;28;20035;-29
2023/05/18 10:43:02;;;;;;;18.63;3.83;;;;;;;-143.48;38.65;118439.88;5055120;28;20033;-29
2023/05/18 10:45:31;;;;;;;7.13;2.30;;;;;;;-143.48;39.90;118439.88;5054999;28;20111;-29
2023/05/18 10:47:59;;;;;;;9.00;2.83;;;;;;;-143.48;39.17;118439.88;5054955;28;20025;-29
2023/05/18 10:50:25;;;;;;;9.88;2.70;;;;;;;-143.48;38.43;118439.88;5054994;28;20070;-29
2023/05/18 10:52:52;;;;;;;15.13;2.60;;;;;;;-143.48;39.09;118439.88;5054582;28;20107;-29
2023/05/18 10:55:17;;;;;;;8.77;2.47;;;;;;;-143.48;38.67;118439.88;5035846;28;20082;-29
2023/05/18 10:57:52;;;;;;;7.72;2.40;;;;;;;-143.48;39.50;118439.88;5054577;28;20029;-29
2023/05/18 11:00:18;;;;;;;11.60;2.80;;;;;;;-143.48;39.96;118439.88;5054382;28;20383;-29
2023/05/18 11:02:44;;;;;;;9.40;2.40;;;;;;;-143.48;39.75;118439.88;5054775;28;20388;-29
2023/05/18 11:05:11;;;;;;;11.77;3.00;;;;;;;-143.48;37.64;118439.88;5054475;28;20021;-29